Time;durP1;ratioP1;P1;durP2;ratioP2;P2;SDS_P1;SDS_P2;PMS_P1;PMS_P2;Temp;Humidity;BMP_temperature;BMP_pressure;BME280_temperature;BME280_humidity;BME280_pressure;Samples;Min_cycle;Max_cycle;Signal;HPM_P1;HPM_P2
2022/03/19 00:01:55;;;;;;;77.20;44.40;;;;;;;;;;788636;179;919497;-63
2022/03/19 00:04:21;;;;;;;67.40;47.77;;;;;;;;;;767457;182;918824;-63
2022/03/19 00:06:47;;;;;;;73.30;45.63;;;;;;;;;;767809;179;919509;-63
2022/03/19 00:09:12;;;;;;;87.97;56.80;;;;;;;;;;774774;180;919657;-62
2022/03/19 00:11:39;;;;;;;90.73;54.47;;;;;;;;;;776835;180;921725;-61
2022/03/19 00:14:04;;;;;;;72.47;50.47;;;;;;;;;;777656;179;919192;-63
2022/03/19 00:16:30;;;;;;;73.25;45.78;;;;;;;;;;782893;177;919723;-61
2022/03/19 00:18:56;;;;;;;59.37;42.13;;;;;;;;;;769286;177;919778;-60
2022/03/19 00:21:22;;;;;;;70.47;38.90;;;;;;;;;;780504;179;919341;-62
2022/03/19 00:23:48;;;;;;;67.90;36.63;;;;;;;;;;777602;179;916050;-62
2022/03/19 00:26:14;;;;;;;61.87;40.03;;;;;;;;;;777417;179;919926;-63
2022/03/19 00:28:40;;;;;;;64.73;41.13;;;;;;;;;;769327;179;920182;-63
2022/03/19 00:31:05;;;;;;;55.57;36.30;;;;;;;;;;768626;182;918972;-63
2022/03/19 00:33:31;;;;;;;54.77;37.87;;;;;;;;;;779158;178;918420;-61
2022/03/19 00:35:57;;;;;;;55.10;35.50;;;;;;;;;;777209;179;919156;-62
2022/03/19 00:38:23;;;;;;;51.90;32.17;;;;;;;;;;777407;180;919927;-62
2022/03/19 00:40:51;;;;;;;54.17;33.20;;;;;;;;;;784672;178;919062;-62
2022/03/19 00:43:15;;;;;;;61.13;33.20;;;;;;;;;;780900;179;919073;-63
2022/03/19 00:45:41;;;;;;;62.17;33.47;;;;;;;;;;781350;177;919366;-61
2022/03/19 00:48:07;;;;;;;53.23;34.20;;;;;;;;;;774057;180;922212;-62
2022/03/19 00:50:33;;;;;;;52.33;33.27;;;;;;;;;;773474;180;919536;-62
2022/03/19 00:52:59;;;;;;;63.30;35.70;;;;;;;;;;769737;182;918652;-63
2022/03/19 00:55:24;;;;;;;58.10;35.80;;;;;;;;;;774862;179;918959;-63
2022/03/19 00:57:50;;;;;;;55.33;34.80;;;;;;;;;;780363;180;919342;-61
2022/03/19 01:00:16;;;;;;;59.97;35.88;;;;;;;;;;767106;180;918866;-62
2022/03/19 01:02:42;;;;;;;51.17;32.20;;;;;;;;;;767182;177;918703;-62
2022/03/19 01:05:08;;;;;;;58.97;33.43;;;;;;;;;;777323;176;1132264;-63
2022/03/19 01:07:34;;;;;;;57.53;36.10;;;;;;;;;;766328;179;919323;-63
2022/03/19 01:10:00;;;;;;;55.57;33.33;;;;;;;;;;769500;180;919126;-62
2022/03/19 01:12:26;;;;;;;60.27;36.90;;;;;;;;;;768745;179;918891;-62
2022/03/19 01:14:51;;;;;;;56.10;35.50;;;;;;;;;;773844;180;918868;-61
2022/03/19 01:17:17;;;;;;;56.13;32.67;;;;;;;;;;762578;182;919295;-62
2022/03/19 01:22:15;;;;;;;51.40;32.90;;;;;;;;;;772948;181;920656;-63
2022/03/19 01:24:41;;;;;;;46.57;30.63;;;;;;;;;;762453;181;947246;-65
2022/03/19 01:27:06;;;;;;;61.63;37.77;;;;;;;;;;775464;178;915757;-61
2022/03/19 01:29:32;;;;;;;53.47;34.87;;;;;;;;;;774545;179;1018521;-61
2022/03/19 01:31:58;;;;;;;53.13;35.40;;;;;;;;;;764449;182;920193;-62
2022/03/19 01:34:24;;;;;;;59.60;37.30;;;;;;;;;;769608;179;1018662;-62
2022/03/19 01:36:50;;;;;;;69.03;39.13;;;;;;;;;;765089;179;918584;-62
2022/03/19 01:39:16;;;;;;;63.45;38.22;;;;;;;;;;769840;180;917152;-62
2022/03/19 01:41:41;;;;;;;70.13;34.50;;;;;;;;;;764698;179;920984;-62
2022/03/19 01:44:07;;;;;;;58.10;36.03;;;;;;;;;;764989;177;920309;-63
2022/03/19 01:46:39;;;;;;;62.97;40.63;;;;;;;;;;777755;178;920860;-62
2022/03/19 01:49:05;;;;;;;63.73;40.63;;;;;;;;;;773717;181;919371;-63
2022/03/19 01:51:32;;;;;;;73.30;48.90;;;;;;;;;;763539;181;921074;-62
2022/03/19 01:53:56;;;;;;;71.87;43.40;;;;;;;;;;765823;183;920162;-63
2022/03/19 01:56:24;;;;;;;81.68;48.38;;;;;;;;;;785137;179;873752;-62
2022/03/19 01:58:49;;;;;;;78.37;49.53;;;;;;;;;;779353;179;919038;-61
2022/03/19 02:01:14;;;;;;;80.10;49.37;;;;;;;;;;771158;180;919199;-62
2022/03/19 02:03:40;;;;;;;74.93;49.60;;;;;;;;;;776003;179;918711;-62
2022/03/19 02:06:07;;;;;;;74.67;49.90;;;;;;;;;;771291;179;919740;-63
2022/03/19 02:08:32;;;;;;;72.78;47.13;;;;;;;;;;769424;178;919936;-62
2022/03/19 02:10:57;;;;;;;80.50;49.53;;;;;;;;;;780762;179;919450;-63
2022/03/19 02:13:23;;;;;;;75.60;45.63;;;;;;;;;;780221;177;919542;-62
2022/03/19 02:15:49;;;;;;;77.07;49.87;;;;;;;;;;775054;179;919584;-62
2022/03/19 02:18:15;;;;;;;84.60;50.50;;;;;;;;;;771263;178;919366;-61
2022/03/19 02:20:41;;;;;;;74.87;45.67;;;;;;;;;;779519;178;918744;-61
2022/03/19 02:25:38;;;;;;;76.80;49.00;;;;;;;;;;779507;179;918576;-62
2022/03/19 02:28:04;;;;;;;76.57;45.07;;;;;;;;;;783079;180;919842;-62
2022/03/19 02:30:30;;;;;;;67.27;42.87;;;;;;;;;;779515;180;919417;-64
2022/03/19 02:32:57;;;;;;;76.12;45.78;;;;;;;;;;776114;177;1021740;-63
2022/03/19 02:35:22;;;;;;;68.43;43.70;;;;;;;;;;768422;180;918132;-63
2022/03/19 02:37:48;;;;;;;74.37;48.00;;;;;;;;;;767088;182;919112;-62
2022/03/19 02:40:14;;;;;;;73.53;47.07;;;;;;;;;;760584;182;919758;-62
2022/03/19 02:42:39;;;;;;;69.37;43.53;;;;;;;;;;758882;181;918867;-63
2022/03/19 02:45:06;;;;;;;76.33;47.97;;;;;;;;;;768156;181;920250;-62
2022/03/19 02:47:32;;;;;;;74.83;44.70;;;;;;;;;;777023;179;920173;-63
2022/03/19 02:49:58;;;;;;;74.63;49.30;;;;;;;;;;772322;179;919463;-62
2022/03/19 02:52:24;;;;;;;70.40;44.83;;;;;;;;;;775933;179;919328;-63
2022/03/19 02:54:49;;;;;;;75.93;44.93;;;;;;;;;;770892;178;958906;-62
2022/03/19 02:57:15;;;;;;;66.00;42.00;;;;;;;;;;776872;180;919544;-63
2022/03/19 02:59:41;;;;;;;76.03;46.80;;;;;;;;;;775790;179;918882;-62
2022/03/19 03:02:08;;;;;;;74.77;46.20;;;;;;;;;;785286;176;918328;-63
2022/03/19 03:04:34;;;;;;;78.00;46.60;;;;;;;;;;782085;175;919583;-63
2022/03/19 03:07:00;;;;;;;70.33;45.73;;;;;;;;;;769867;179;916948;-63
2022/03/19 03:09:26;;;;;;;72.40;45.35;;;;;;;;;;773962;179;915869;-62
2022/03/19 03:11:51;;;;;;;70.70;46.27;;;;;;;;;;781482;176;917095;-61
2022/03/19 03:14:20;;;;;;;83.70;49.90;;;;;;;;;;774769;179;920255;-61
2022/03/19 03:16:47;;;;;;;73.73;48.20;;;;;;;;;;777112;179;919138;-61
2022/03/19 03:19:13;;;;;;;79.17;48.73;;;;;;;;;;767557;180;919873;-62
2022/03/19 03:21:40;;;;;;;86.33;50.17;;;;;;;;;;769350;178;921898;-62
2022/03/19 03:24:07;;;;;;;85.40;53.37;;;;;;;;;;769490;178;1005429;-61
2022/03/19 03:26:32;;;;;;;81.93;51.87;;;;;;;;;;776156;180;917605;-63
2022/03/19 03:28:58;;;;;;;78.78;49.17;;;;;;;;;;773351;179;919224;-62
2022/03/19 03:31:24;;;;;;;78.43;47.60;;;;;;;;;;772490;180;918900;-61
2022/03/19 03:33:50;;;;;;;84.23;51.20;;;;;;;;;;771517;180;918588;-63
2022/03/19 03:36:16;;;;;;;81.70;50.93;;;;;;;;;;766959;180;920066;-63
2022/03/19 03:38:42;;;;;;;93.37;60.73;;;;;;;;;;770060;179;916938;-61
2022/03/19 03:41:07;;;;;;;94.70;57.50;;;;;;;;;;772170;179;918800;-62
2022/03/19 03:43:33;;;;;;;84.13;54.40;;;;;;;;;;767308;180;920482;-62
2022/03/19 03:45:59;;;;;;;82.33;52.27;;;;;;;;;;768867;180;919166;-62
2022/03/19 03:48:25;;;;;;;79.60;48.13;;;;;;;;;;773650;179;919736;-62
2022/03/19 03:50:52;;;;;;;75.80;48.97;;;;;;;;;;772753;180;919504;-62
2022/03/19 03:53:17;;;;;;;91.60;51.00;;;;;;;;;;770318;180;918929;-61
2022/03/19 03:55:43;;;;;;;83.55;49.58;;;;;;;;;;769381;179;1055752;-61
2022/03/19 03:58:09;;;;;;;89.17;56.00;;;;;;;;;;775549;180;918521;-62
2022/03/19 04:00:35;;;;;;;85.57;52.50;;;;;;;;;;774384;179;921384;-62
2022/03/19 04:03:01;;;;;;;87.18;49.28;;;;;;;;;;770427;180;1052847;-62
2022/03/19 04:05:27;;;;;;;79.17;50.37;;;;;;;;;;776950;179;915828;-62
2022/03/19 04:07:54;;;;;;;79.70;50.80;;;;;;;;;;777439;179;919669;-61
2022/03/19 04:10:18;;;;;;;78.57;50.13;;;;;;;;;;769434;179;918950;-62
2022/03/19 04:12:44;;;;;;;79.60;49.43;;;;;;;;;;768678;180;919146;-60
2022/03/19 04:15:10;;;;;;;77.10;46.90;;;;;;;;;;779547;177;919027;-61
2022/03/19 04:17:36;;;;;;;74.73;47.63;;;;;;;;;;771934;181;919898;-62
2022/03/19 04:20:03;;;;;;;78.63;46.33;;;;;;;;;;772731;176;919122;-61
2022/03/19 04:22:34;;;;;;;68.40;44.47;;;;;;;;;;776947;180;919983;-62
2022/03/19 04:24:59;;;;;;;72.37;45.93;;;;;;;;;;773073;180;917605;-62
2022/03/19 04:27:25;;;;;;;71.30;45.40;;;;;;;;;;771283;180;920473;-62
2022/03/19 04:29:51;;;;;;;76.60;49.67;;;;;;;;;;768290;180;931151;-61
2022/03/19 04:32:17;;;;;;;76.33;50.60;;;;;;;;;;775212;178;920468;-62
2022/03/19 04:34:43;;;;;;;87.30;49.93;;;;;;;;;;762834;180;919373;-62
2022/03/19 04:37:09;;;;;;;72.30;46.03;;;;;;;;;;776005;179;919586;-62
2022/03/19 04:39:35;;;;;;;86.80;55.37;;;;;;;;;;782548;179;919563;-62
2022/03/19 04:42:00;;;;;;;80.20;49.17;;;;;;;;;;780276;177;920246;-61
2022/03/19 04:44:26;;;;;;;81.93;50.70;;;;;;;;;;769955;179;920078;-61
2022/03/19 04:46:52;;;;;;;93.43;53.17;;;;;;;;;;785285;177;919104;-62
2022/03/19 04:49:18;;;;;;;82.70;49.77;;;;;;;;;;774245;177;919606;-62
2022/03/19 04:51:44;;;;;;;81.90;48.30;;;;;;;;;;769514;180;1022373;-62
2022/03/19 04:54:10;;;;;;;84.18;53.55;;;;;;;;;;772199;182;919465;-61
2022/03/19 04:56:36;;;;;;;82.10;52.10;;;;;;;;;;777516;179;919833;-62
2022/03/19 04:59:03;;;;;;;81.27;53.73;;;;;;;;;;782768;178;920842;-62
2022/03/19 05:01:28;;;;;;;81.07;52.57;;;;;;;;;;768728;180;917881;-61
2022/03/19 05:03:53;;;;;;;82.20;51.60;;;;;;;;;;785125;178;918182;-61
2022/03/19 05:06:19;;;;;;;91.00;53.63;;;;;;;;;;768661;179;919925;-61
2022/03/19 05:08:45;;;;;;;97.87;54.20;;;;;;;;;;763419;180;916459;-61
2022/03/19 05:11:13;;;;;;;84.53;55.93;;;;;;;;;;771416;180;916084;-63
2022/03/19 05:13:42;;;;;;;95.97;59.00;;;;;;;;;;775515;180;919744;-62
2022/03/19 05:16:07;;;;;;;108.27;63.60;;;;;;;;;;788287;177;673825;-62
2022/03/19 05:18:33;;;;;;;103.60;59.57;;;;;;;;;;779677;179;919332;-62
2022/03/19 05:20:59;;;;;;;121.90;67.27;;;;;;;;;;786351;179;626030;-62
2022/03/19 05:23:25;;;;;;;111.10;66.68;;;;;;;;;;778602;180;919766;-62
2022/03/19 05:25:52;;;;;;;103.47;61.97;;;;;;;;;;783087;177;626317;-61
2022/03/19 05:28:17;;;;;;;117.00;67.23;;;;;;;;;;780487;178;620765;-62
2022/03/19 05:30:42;;;;;;;97.93;63.13;;;;;;;;;;774764;180;638112;-63
2022/03/19 05:33:08;;;;;;;109.65;65.93;;;;;;;;;;777797;178;921995;-61
2022/03/19 05:35:34;;;;;;;115.17;66.80;;;;;;;;;;778997;178;919700;-62
2022/03/19 05:38:00;;;;;;;106.60;69.97;;;;;;;;;;783820;178;919955;-62
2022/03/19 05:40:26;;;;;;;127.43;71.37;;;;;;;;;;772117;178;953564;-62
2022/03/19 05:42:52;;;;;;;123.97;71.10;;;;;;;;;;771072;178;1021387;-61
2022/03/19 05:45:20;;;;;;;207.90;104.97;;;;;;;;;;773341;179;918365;-61
2022/03/19 05:47:44;;;;;;;161.93;86.47;;;;;;;;;;771263;177;920040;-63
2022/03/19 05:50:09;;;;;;;155.07;88.33;;;;;;;;;;775744;177;919379;-61
2022/03/19 05:52:35;;;;;;;129.37;73.53;;;;;;;;;;782277;179;620504;-62
2022/03/19 05:55:01;;;;;;;169.50;92.37;;;;;;;;;;778428;179;860617;-63
2022/03/19 05:57:27;;;;;;;137.33;79.20;;;;;;;;;;763713;180;919302;-62
2022/03/19 05:59:53;;;;;;;139.30;74.00;;;;;;;;;;777571;179;628569;-62
2022/03/19 06:02:19;;;;;;;118.93;59.20;;;;;;;;;;762344;180;917127;-63
2022/03/19 06:04:44;;;;;;;103.47;53.80;;;;;;;;;;769893;180;919194;-63
2022/03/19 06:07:10;;;;;;;104.97;56.37;;;;;;;;;;786639;175;919672;-62
2022/03/19 06:09:37;;;;;;;100.93;54.63;;;;;;;;;;777953;178;919497;-63
2022/03/19 06:12:02;;;;;;;92.13;54.77;;;;;;;;;;771224;178;919888;-64
2022/03/19 06:14:28;;;;;;;87.47;48.30;;;;;;;;;;768183;179;919085;-63
2022/03/19 06:16:54;;;;;;;79.40;48.23;;;;;;;;;;774778;180;919040;-64
2022/03/19 06:19:21;;;;;;;91.97;50.37;;;;;;;;;;771082;179;920774;-63
2022/03/19 06:21:47;;;;;;;99.43;55.30;;;;;;;;;;771449;179;979315;-62
2022/03/19 06:24:13;;;;;;;124.10;64.57;;;;;;;;;;777079;179;920094;-62
2022/03/19 06:26:39;;;;;;;105.03;61.03;;;;;;;;;;770089;179;919381;-62
2022/03/19 06:29:04;;;;;;;101.60;59.70;;;;;;;;;;773598;179;919204;-61
2022/03/19 06:31:30;;;;;;;81.50;45.30;;;;;;;;;;778377;179;919112;-63
2022/03/19 06:33:56;;;;;;;92.40;47.17;;;;;;;;;;771784;179;919457;-62
2022/03/19 06:38:54;;;;;;;82.37;43.57;;;;;;;;;;774694;179;919654;-62
2022/03/19 06:41:21;;;;;;;88.30;45.07;;;;;;;;;;779499;179;920195;-62
2022/03/19 06:43:46;;;;;;;78.83;44.07;;;;;;;;;;774235;178;919637;-62
2022/03/19 06:46:11;;;;;;;98.23;50.63;;;;;;;;;;771337;179;920000;-62
2022/03/19 06:48:37;;;;;;;97.97;52.67;;;;;;;;;;781247;177;918637;-63
2022/03/19 06:51:03;;;;;;;86.87;47.23;;;;;;;;;;777751;177;920032;-63
2022/03/19 06:53:29;;;;;;;151.33;83.63;;;;;;;;;;774398;178;918849;-62
2022/03/19 06:55:55;;;;;;;97.43;48.93;;;;;;;;;;770375;180;919652;-63
2022/03/19 06:58:21;;;;;;;90.50;52.20;;;;;;;;;;775000;179;920739;-62
2022/03/19 07:00:47;;;;;;;97.20;51.13;;;;;;;;;;769249;179;919281;-62
2022/03/19 07:03:12;;;;;;;90.32;50.70;;;;;;;;;;775366;177;919244;-63
2022/03/19 07:05:38;;;;;;;75.93;39.57;;;;;;;;;;780744;177;919459;-63
2022/03/19 07:08:08;;;;;;;80.50;44.40;;;;;;;;;;779588;178;919633;-63
2022/03/19 07:10:30;;;;;;;73.23;40.20;;;;;;;;;;772466;179;919693;-62
2022/03/19 07:12:56;;;;;;;60.53;35.27;;;;;;;;;;775148;180;917603;-63
2022/03/19 07:15:24;;;;;;;75.12;41.42;;;;;;;;;;769581;180;919582;-62
2022/03/19 07:17:50;;;;;;;62.57;36.37;;;;;;;;;;775686;179;919966;-62
2022/03/19 07:20:14;;;;;;;67.67;39.57;;;;;;;;;;772241;179;919271;-62
2022/03/19 07:22:48;;;;;;;63.97;38.67;;;;;;;;;;774794;179;919099;-64
2022/03/19 07:25:14;;;;;;;81.83;39.37;;;;;;;;;;771957;177;919250;-64
2022/03/19 07:27:40;;;;;;;106.43;50.57;;;;;;;;;;770557;179;919307;-64
2022/03/19 07:30:06;;;;;;;83.63;39.43;;;;;;;;;;775396;180;915580;-63
2022/03/19 07:32:32;;;;;;;72.17;39.70;;;;;;;;;;776098;178;895544;-64
2022/03/19 07:34:59;;;;;;;86.40;43.67;;;;;;;;;;773198;179;918253;-63
2022/03/19 07:37:23;;;;;;;82.63;43.20;;;;;;;;;;772853;179;919009;-64
2022/03/19 07:39:49;;;;;;;68.65;40.22;;;;;;;;;;775176;180;919534;-64
2022/03/19 07:42:15;;;;;;;72.00;33.37;;;;;;;;;;776050;177;942430;-64
2022/03/19 07:44:41;;;;;;;60.70;32.63;;;;;;;;;;770582;180;919618;-64
2022/03/19 07:47:07;;;;;;;102.80;43.87;;;;;;;;;;776811;180;918519;-65
2022/03/19 07:49:33;;;;;;;71.40;39.30;;;;;;;;;;768747;179;919227;-63
2022/03/19 07:52:05;;;;;;;51.33;29.37;;;;;;;;;;769943;180;1020985;-63
2022/03/19 07:54:27;;;;;;;77.40;38.93;;;;;;;;;;774687;180;919168;-64
2022/03/19 07:56:51;;;;;;;127.70;59.97;;;;;;;;;;772330;180;919553;-65
2022/03/19 07:59:16;;;;;;;77.43;36.00;;;;;;;;;;769471;178;944377;-65
2022/03/19 08:01:42;;;;;;;112.57;51.23;;;;;;;;;;774810;177;919476;-62
2022/03/19 08:04:08;;;;;;;100.43;44.90;;;;;;;;;;775564;179;920033;-64
2022/03/19 08:06:34;;;;;;;72.87;36.65;;;;;;;;;;761596;180;919381;-64
2022/03/19 08:09:01;;;;;;;75.83;40.67;;;;;;;;;;769372;180;919094;-64
2022/03/19 08:11:25;;;;;;;70.37;39.07;;;;;;;;;;775896;180;918527;-63
2022/03/19 08:13:51;;;;;;;43.57;24.43;;;;;;;;;;768778;180;918877;-64
2022/03/19 08:16:17;;;;;;;75.30;34.93;;;;;;;;;;767907;180;920758;-64
2022/03/19 08:18:44;;;;;;;66.15;36.78;;;;;;;;;;773833;179;918365;-64
2022/03/19 08:21:09;;;;;;;75.70;39.67;;;;;;;;;;771137;180;919114;-65
2022/03/19 08:23:35;;;;;;;68.00;36.83;;;;;;;;;;775830;177;919187;-64
2022/03/19 08:26:01;;;;;;;144.90;57.30;;;;;;;;;;778667;179;919405;-64
2022/03/19 08:28:26;;;;;;;97.43;43.40;;;;;;;;;;770986;179;919622;-65
2022/03/19 08:30:52;;;;;;;73.57;37.33;;;;;;;;;;772002;179;918939;-63
2022/03/19 08:33:18;;;;;;;103.25;51.78;;;;;;;;;;770243;179;919546;-64
2022/03/19 08:35:44;;;;;;;96.20;43.07;;;;;;;;;;774918;179;1020959;-64
2022/03/19 08:40:41;;;;;;;76.83;40.40;;;;;;;;;;769587;179;924731;-62
2022/03/19 08:43:07;;;;;;;75.13;37.60;;;;;;;;;;776548;179;896698;-64
2022/03/19 08:45:33;;;;;;;66.40;36.50;;;;;;;;;;778008;177;917641;-64
2022/03/19 08:47:59;;;;;;;46.55;23.20;;;;;;;;;;771977;180;912632;-64
2022/03/19 08:50:27;;;;;;;68.20;36.07;;;;;;;;;;769675;179;942749;-63
2022/03/19 08:52:51;;;;;;;84.67;43.10;;;;;;;;;;775694;180;919099;-64
2022/03/19 08:55:16;;;;;;;72.20;37.03;;;;;;;;;;768371;180;920087;-63
2022/03/19 08:57:42;;;;;;;62.80;36.97;;;;;;;;;;770441;180;920368;-64
2022/03/19 09:00:09;;;;;;;67.80;29.23;;;;;;;;;;777366;179;816627;-64
2022/03/19 09:02:34;;;;;;;86.40;44.70;;;;;;;;;;776978;178;697907;-64
2022/03/19 09:05:00;;;;;;;77.40;42.00;;;;;;;;;;774984;177;919160;-62
2022/03/19 09:07:26;;;;;;;71.07;37.30;;;;;;;;;;779342;177;919403;-63
2022/03/19 09:09:53;;;;;;;74.75;34.67;;;;;;;;;;773280;177;919899;-62
2022/03/19 09:12:20;;;;;;;84.50;42.57;;;;;;;;;;773376;179;919612;-65
2022/03/19 09:14:46;;;;;;;60.30;32.95;;;;;;;;;;773925;179;919596;-64
2022/03/19 09:17:12;;;;;;;44.23;20.70;;;;;;;;;;773227;177;1226257;-63
2022/03/19 09:19:39;;;;;;;65.43;34.87;;;;;;;;;;772771;178;1440689;-64
2022/03/19 09:22:04;;;;;;;51.22;27.20;;;;;;;;;;770831;179;920085;-64
2022/03/19 09:24:30;;;;;;;66.80;32.87;;;;;;;;;;775792;180;918657;-65
2022/03/19 09:26:56;;;;;;;49.80;26.80;;;;;;;;;;772135;179;919325;-63
2022/03/19 09:29:21;;;;;;;60.30;28.93;;;;;;;;;;768882;179;918678;-64
2022/03/19 09:31:47;;;;;;;65.00;34.70;;;;;;;;;;775164;180;918466;-64
2022/03/19 09:34:13;;;;;;;45.88;21.70;;;;;;;;;;769851;177;919467;-64
2022/03/19 09:36:41;;;;;;;51.07;26.57;;;;;;;;;;768655;179;918934;-64
2022/03/19 09:39:05;;;;;;;58.10;27.57;;;;;;;;;;778617;179;1021360;-63
2022/03/19 09:41:31;;;;;;;53.17;29.67;;;;;;;;;;780698;179;614994;-64
2022/03/19 09:43:56;;;;;;;60.53;34.00;;;;;;;;;;773041;179;921569;-64
2022/03/19 09:46:22;;;;;;;63.73;32.30;;;;;;;;;;784414;178;622617;-63
2022/03/19 09:48:48;;;;;;;53.07;29.70;;;;;;;;;;780370;178;919416;-63
2022/03/19 09:51:14;;;;;;;42.90;23.07;;;;;;;;;;783684;177;627757;-63
2022/03/19 09:53:40;;;;;;;58.53;26.63;;;;;;;;;;783041;177;633835;-63
2022/03/19 09:56:06;;;;;;;57.60;33.28;;;;;;;;;;776915;177;940928;-63
2022/03/19 09:58:33;;;;;;;67.70;37.10;;;;;;;;;;769722;179;936719;-61
2022/03/19 10:01:02;;;;;;;62.15;32.88;;;;;;;;;;776981;177;918999;-63
2022/03/19 10:03:28;;;;;;;55.20;30.00;;;;;;;;;;770650;177;923138;-64
2022/03/19 10:10:57;;;;;;;41.17;24.10;;;;;;;;;;773063;179;920264;-64
2022/03/19 10:13:24;;;;;;;62.30;35.23;;;;;;;;;;773950;180;918825;-63
2022/03/19 10:15:49;;;;;;;72.65;35.97;;;;;;;;;;776246;179;918805;-63
2022/03/19 10:18:15;;;;;;;55.53;27.77;;;;;;;;;;768409;177;1020654;-64
2022/03/19 10:20:42;;;;;;;59.08;31.87;;;;;;;;;;773981;178;919324;-64
2022/03/19 10:23:07;;;;;;;56.43;31.33;;;;;;;;;;775347;179;919867;-63
2022/03/19 10:25:32;;;;;;;60.50;33.57;;;;;;;;;;767413;180;919618;-63
2022/03/19 10:27:59;;;;;;;57.70;31.60;;;;;;;;;;769543;180;919782;-64
2022/03/19 10:30:28;;;;;;;61.57;32.43;;;;;;;;;;782510;179;919849;-63
2022/03/19 10:32:52;;;;;;;63.13;28.50;;;;;;;;;;778160;177;920501;-64
2022/03/19 10:35:23;;;;;;;61.20;32.73;;;;;;;;;;780166;177;629772;-64
2022/03/19 10:37:49;;;;;;;61.07;29.83;;;;;;;;;;768716;180;1020714;-64
2022/03/19 10:40:15;;;;;;;49.47;23.27;;;;;;;;;;775007;181;919698;-64
2022/03/19 10:42:41;;;;;;;59.10;32.77;;;;;;;;;;766632;180;919170;-64
2022/03/19 10:45:07;;;;;;;54.90;28.40;;;;;;;;;;771363;180;919136;-64
2022/03/19 10:47:39;;;;;;;48.80;27.87;;;;;;;;;;786405;177;918759;-63
2022/03/19 10:50:05;;;;;;;48.30;25.90;;;;;;;;;;773145;179;920809;-64
2022/03/19 10:52:30;;;;;;;55.00;29.20;;;;;;;;;;767411;180;919625;-64
2022/03/19 10:54:56;;;;;;;73.77;35.23;;;;;;;;;;767368;179;919142;-64
2022/03/19 10:57:22;;;;;;;44.03;23.90;;;;;;;;;;777529;179;915500;-63
2022/03/19 10:59:48;;;;;;;73.37;33.07;;;;;;;;;;769875;180;1017727;-65
2022/03/19 11:02:14;;;;;;;50.37;26.67;;;;;;;;;;764146;180;957113;-64
2022/03/19 11:04:40;;;;;;;67.37;28.67;;;;;;;;;;777027;174;917391;-64
2022/03/19 11:07:06;;;;;;;50.87;24.27;;;;;;;;;;772499;179;920928;-63
2022/03/19 11:09:31;;;;;;;45.20;22.03;;;;;;;;;;771985;179;919548;-63
2022/03/19 11:11:57;;;;;;;51.33;26.20;;;;;;;;;;772247;179;957332;-64
2022/03/19 11:14:24;;;;;;;25.97;17.83;;;;;;;;;;766003;181;919897;-64
2022/03/19 11:17:23;;;;;;;45.60;24.80;;;;;;;;;;773080;178;919745;-65
2022/03/19 11:19:16;;;;;;;31.77;17.23;;;;;;;;;;764192;179;919892;-65
2022/03/19 11:21:41;;;;;;;53.83;27.37;;;;;;;;;;776222;179;919548;-62
2022/03/19 11:24:08;;;;;;;36.83;23.13;;;;;;;;;;782206;176;919769;-63
2022/03/19 11:26:34;;;;;;;31.57;21.67;;;;;;;;;;782688;176;918986;-64
2022/03/19 11:29:00;;;;;;;44.67;24.30;;;;;;;;;;779669;179;919436;-64
2022/03/19 11:31:26;;;;;;;39.87;22.17;;;;;;;;;;779474;177;920957;-64
2022/03/19 11:33:52;;;;;;;50.10;27.33;;;;;;;;;;776732;180;919394;-64
2022/03/19 11:36:18;;;;;;;41.53;25.17;;;;;;;;;;778110;180;923822;-64
2022/03/19 11:38:52;;;;;;;44.93;22.70;;;;;;;;;;783068;178;930789;-64
2022/03/19 11:41:17;;;;;;;36.50;17.20;;;;;;;;;;781417;179;916901;-65
2022/03/19 11:43:43;;;;;;;33.97;20.97;;;;;;;;;;772779;176;1018138;-65
2022/03/19 11:46:12;;;;;;;36.45;22.02;;;;;;;;;;775821;179;916478;-63
2022/03/19 11:48:39;;;;;;;65.57;29.67;;;;;;;;;;778388;177;919233;-64
2022/03/19 11:51:10;;;;;;;43.23;23.73;;;;;;;;;;772443;180;920326;-64
2022/03/19 11:53:36;;;;;;;45.30;25.20;;;;;;;;;;768111;180;919342;-64
2022/03/19 11:56:03;;;;;;;39.70;21.97;;;;;;;;;;768009;182;935419;-63
2022/03/19 11:58:28;;;;;;;18.17;13.47;;;;;;;;;;773285;178;918976;-64
2022/03/19 12:00:54;;;;;;;24.33;15.40;;;;;;;;;;769949;180;919818;-64
2022/03/19 12:03:24;;;;;;;37.65;19.95;;;;;;;;;;784041;178;919015;-64
2022/03/19 12:05:46;;;;;;;48.20;26.23;;;;;;;;;;778509;180;919327;-65
2022/03/19 12:08:12;;;;;;;35.27;19.80;;;;;;;;;;765876;180;919685;-64
2022/03/19 12:10:44;;;;;;;37.27;22.63;;;;;;;;;;768558;181;919259;-65
2022/03/19 12:13:16;;;;;;;34.63;19.30;;;;;;;;;;762915;179;919714;-64
2022/03/19 12:15:49;;;;;;;34.93;21.53;;;;;;;;;;772954;180;919871;-64
2022/03/19 12:18:20;;;;;;;35.23;14.70;;;;;;;;;;774670;179;919565;-64
2022/03/19 12:20:46;;;;;;;30.20;17.10;;;;;;;;;;773706;179;919082;-65
2022/03/19 12:23:12;;;;;;;39.87;21.77;;;;;;;;;;769719;179;1024969;-64
2022/03/19 12:25:39;;;;;;;27.60;17.83;;;;;;;;;;782743;179;918704;-65
2022/03/19 12:28:04;;;;;;;30.83;18.73;;;;;;;;;;777588;179;919398;-64
2022/03/19 12:30:30;;;;;;;33.97;21.90;;;;;;;;;;776995;179;918987;-65
2022/03/19 12:32:56;;;;;;;37.87;23.10;;;;;;;;;;781205;179;993131;-65
2022/03/19 12:35:23;;;;;;;42.22;25.42;;;;;;;;;;771046;178;919166;-65
2022/03/19 12:37:49;;;;;;;32.77;19.00;;;;;;;;;;772613;179;920276;-65
2022/03/19 12:40:18;;;;;;;29.80;20.10;;;;;;;;;;779920;179;920226;-65
2022/03/19 12:42:45;;;;;;;29.80;17.20;;;;;;;;;;773738;181;919542;-64
2022/03/19 12:45:10;;;;;;;34.70;18.10;;;;;;;;;;769641;180;975351;-64
2022/03/19 12:47:36;;;;;;;43.83;21.83;;;;;;;;;;768335;180;920248;-65
2022/03/19 12:50:02;;;;;;;27.33;18.37;;;;;;;;;;776744;179;921133;-66
2022/03/19 12:52:29;;;;;;;34.97;20.43;;;;;;;;;;769283;179;1022760;-65
2022/03/19 12:54:55;;;;;;;33.67;22.13;;;;;;;;;;768889;178;991951;-65
2022/03/19 12:57:27;;;;;;;38.37;21.53;;;;;;;;;;774551;181;919776;-66
2022/03/19 12:59:54;;;;;;;38.87;21.50;;;;;;;;;;774843;178;915702;-63
2022/03/19 13:02:19;;;;;;;37.20;19.83;;;;;;;;;;773870;177;915841;-65
2022/03/19 13:04:45;;;;;;;25.17;16.97;;;;;;;;;;777832;176;917566;-64
2022/03/19 13:07:10;;;;;;;30.37;16.97;;;;;;;;;;786605;176;916217;-64
2022/03/19 13:09:37;;;;;;;30.57;19.70;;;;;;;;;;770032;180;916258;-66
2022/03/19 13:12:03;;;;;;;27.37;16.73;;;;;;;;;;769642;181;918892;-65
2022/03/19 13:14:28;;;;;;;30.13;16.17;;;;;;;;;;774346;180;956765;-64
2022/03/19 13:16:55;;;;;;;32.63;18.67;;;;;;;;;;767209;180;919875;-65
2022/03/19 13:19:21;;;;;;;36.25;18.95;;;;;;;;;;770042;180;919997;-66
2022/03/19 13:21:50;;;;;;;24.75;15.50;;;;;;;;;;769394;180;918889;-64
2022/03/19 13:24:16;;;;;;;40.83;18.23;;;;;;;;;;773689;179;918307;-65
2022/03/19 13:26:42;;;;;;;23.83;14.33;;;;;;;;;;770428;179;920438;-65
2022/03/19 13:29:08;;;;;;;25.03;14.40;;;;;;;;;;772416;179;920070;-64
2022/03/19 13:31:35;;;;;;;30.50;19.10;;;;;;;;;;767193;179;1050367;-65
2022/03/19 13:34:02;;;;;;;76.73;28.47;;;;;;;;;;774147;179;813359;-65
2022/03/19 13:36:28;;;;;;;40.47;19.67;;;;;;;;;;776173;179;916283;-64
2022/03/19 13:38:54;;;;;;;32.77;19.70;;;;;;;;;;767256;180;1119472;-63
2022/03/19 13:41:19;;;;;;;30.75;17.40;;;;;;;;;;758076;180;916084;-65
2022/03/19 13:43:45;;;;;;;37.63;18.20;;;;;;;;;;761374;181;918837;-66
2022/03/19 13:46:12;;;;;;;27.83;16.70;;;;;;;;;;767694;180;1121407;-65
2022/03/19 13:48:37;;;;;;;29.13;18.83;;;;;;;;;;776083;180;916418;-66
2022/03/19 13:51:03;;;;;;;32.97;19.67;;;;;;;;;;779304;177;948583;-65
2022/03/19 13:53:35;;;;;;;35.57;16.17;;;;;;;;;;778310;177;1018237;-64
2022/03/19 13:56:01;;;;;;;31.13;16.67;;;;;;;;;;779224;180;915943;-64
2022/03/19 13:58:27;;;;;;;21.00;13.90;;;;;;;;;;781433;180;915464;-65
2022/03/19 14:00:55;;;;;;;29.73;17.33;;;;;;;;;;765973;180;919171;-65
2022/03/19 14:03:21;;;;;;;24.80;17.33;;;;;;;;;;775848;177;920874;-64
2022/03/19 14:05:48;;;;;;;31.47;16.23;;;;;;;;;;773598;179;918943;-65
2022/03/19 14:08:14;;;;;;;28.50;16.03;;;;;;;;;;769907;177;919292;-65
2022/03/19 14:10:39;;;;;;;24.60;14.43;;;;;;;;;;769935;180;919055;-65